sensor_id;sensor_type;location;lat;lon;timestamp;P1;P2;P0
70197;PMS5003;57582;-34.876;138.628;2023-04-25T00:02:40;0.03;0.03;0.03
70197;PMS5003;57582;-34.876;138.628;2023-04-25T00:05:40;0.77;0.77;0.10
70197;PMS5003;57582;-34.876;138.628;2023-04-25T00:08:40;0.00;0.00;0.00
70197;PMS5003;57582;-34.876;138.628;2023-04-25T00:11:40;0.07;0.07;0.00
70197;PMS5003;57582;-34.876;138.628;2023-04-25T00:14:40;0.00;0.00;0.00
70197;PMS5003;57582;-34.876;138.628;2023-04-25T00:17:40;0.50;0.17;0.00
70197;PMS5003;57582;-34.876;138.628;2023-04-25T00:20:40;0.00;0.00;0.00
70197;PMS5003;57582;-34.876;138.628;2023-04-25T00:23:40;0.00;0.00;0.00
70197;PMS5003;57582;-34.876;138.628;2023-04-25T00:26:40;0.00;0.00;0.00
70197;PMS5003;57582;-34.876;138.628;2023-04-25T00:29:40;0.43;0.43;0.00
70197;PMS5003;57582;-34.876;138.628;2023-04-25T00:32:40;0.07;0.07;0.03
70197;PMS5003;57582;-34.876;138.628;2023-04-25T00:35:40;0.40;0.40;0.00
70197;PMS5003;57582;-34.876;138.628;2023-04-25T00:38:40;0.00;0.00;0.00
70197;PMS5003;57582;-34.876;138.628;2023-04-25T00:41:40;0.43;0.10;0.00
70197;PMS5003;57582;-34.876;138.628;2023-04-25T00:44:41;0.00;0.00;0.00
70197;PMS5003;57582;-34.876;138.628;2023-04-25T00:47:41;1.20;0.03;0.00
70197;PMS5003;57582;-34.876;138.628;2023-04-25T00:50:40;0.00;0.00;0.00
70197;PMS5003;57582;-34.876;138.628;2023-04-25T00:53:40;0.17;0.00;0.00
70197;PMS5003;57582;-34.876;138.628;2023-04-25T00:56:41;0.50;0.00;0.00
70197;PMS5003;57582;-34.876;138.628;2023-04-25T00:59:45;0.00;0.00;0.00
70197;PMS5003;57582;-34.876;138.628;2023-04-25T01:02:41;0.00;0.00;0.00
70197;PMS5003;57582;-34.876;138.628;2023-04-25T01:05:41;0.00;0.00;0.00
70197;PMS5003;57582;-34.876;138.628;2023-04-25T01:08:40;0.00;0.00;0.00
70197;PMS5003;57582;-34.876;138.628;2023-04-25T01:11:40;0.00;0.00;0.00
70197;PMS5003;57582;-34.876;138.628;2023-04-25T01:14:40;0.30;0.30;0.00
70197;PMS5003;57582;-34.876;138.628;2023-04-25T01:17:40;0.27;0.27;0.03
70197;PMS5003;57582;-34.876;138.628;2023-04-25T01:20:41;0.00;0.00;0.00
70197;PMS5003;57582;-34.876;138.628;2023-04-25T01:23:41;0.00;0.00;0.00
70197;PMS5003;57582;-34.876;138.628;2023-04-25T01:26:41;0.33;0.33;0.00
70197;PMS5003;57582;-34.876;138.628;2023-04-25T01:29:40;0.07;0.07;0.00
70197;PMS5003;57582;-34.876;138.628;2023-04-25T01:32:42;0.47;0.47;0.07
70197;PMS5003;57582;-34.876;138.628;2023-04-25T01:49:58;0.00;0.00;0.00
70197;PMS5003;57582;-34.876;138.628;2023-04-25T01:52:12;0.00;0.00;0.00
70197;PMS5003;57582;-34.876;138.628;2023-04-25T02:01:13;0.33;0.00;0.00
70197;PMS5003;57582;-34.876;138.628;2023-04-25T02:04:12;0.03;0.03;0.00
70197;PMS5003;57582;-34.876;138.628;2023-04-25T02:07:12;0.53;0.00;0.00
70197;PMS5003;57582;-34.876;138.628;2023-04-25T02:10:12;0.60;0.60;0.00
70197;PMS5003;57582;-34.876;138.628;2023-04-25T02:13:13;0.00;0.00;0.00
70197;PMS5003;57582;-34.876;138.628;2023-04-25T02:16:12;0.83;0.03;0.00
70197;PMS5003;57582;-34.876;138.628;2023-04-25T02:19:12;0.00;0.00;0.00
70197;PMS5003;57582;-34.876;138.628;2023-04-25T02:22:12;0.10;0.10;0.00
70197;PMS5003;57582;-34.876;138.628;2023-04-25T02:25:13;0.03;0.03;0.00
70197;PMS5003;57582;-34.876;138.628;2023-04-25T02:28:12;0.00;0.00;0.00
70197;PMS5003;57582;-34.876;138.628;2023-04-25T02:31:12;0.27;0.10;0.07
70197;PMS5003;57582;-34.876;138.628;2023-04-25T02:34:12;0.13;0.13;0.00
70197;PMS5003;57582;-34.876;138.628;2023-04-25T02:37:13;0.20;0.20;0.00
70197;PMS5003;57582;-34.876;138.628;2023-04-25T02:40:12;0.00;0.00;0.00
70197;PMS5003;57582;-34.876;138.628;2023-04-25T02:43:12;0.77;0.33;0.00
70197;PMS5003;57582;-34.876;138.628;2023-04-25T02:46:12;1.17;0.40;0.10
70197;PMS5003;57582;-34.876;138.628;2023-04-25T02:49:12;0.57;0.27;0.00
70197;PMS5003;57582;-34.876;138.628;2023-04-25T02:52:12;0.00;0.00;0.00
70197;PMS5003;57582;-34.876;138.628;2023-04-25T02:55:12;0.63;0.03;0.03
70197;PMS5003;57582;-34.876;138.628;2023-04-25T02:58:12;0.20;0.00;0.00
70197;PMS5003;57582;-34.876;138.628;2023-04-25T03:01:12;0.00;0.00;0.00
70197;PMS5003;57582;-34.876;138.628;2023-04-25T03:04:12;0.00;0.00;0.00
70197;PMS5003;57582;-34.876;138.628;2023-04-25T03:07:12;0.27;0.27;0.00
70197;PMS5003;57582;-34.876;138.628;2023-04-25T03:10:12;1.40;0.03;0.00
70197;PMS5003;57582;-34.876;138.628;2023-04-25T03:13:12;0.00;0.00;0.00
70197;PMS5003;57582;-34.876;138.628;2023-04-25T03:16:12;0.13;0.00;0.00
70197;PMS5003;57582;-34.876;138.628;2023-04-25T03:19:12;0.37;0.37;0.00
70197;PMS5003;57582;-34.876;138.628;2023-04-25T03:22:12;0.00;0.00;0.00
70197;PMS5003;57582;-34.876;138.628;2023-04-25T03:25:13;0.17;0.10;0.00
70197;PMS5003;57582;-34.876;138.628;2023-04-25T03:28:12;0.20;0.20;0.00
70197;PMS5003;57582;-34.876;138.628;2023-04-25T03:31:12;0.07;0.07;0.00
70197;PMS5003;57582;-34.876;138.628;2023-04-25T03:34:12;0.00;0.00;0.00
70197;PMS5003;57582;-34.876;138.628;2023-04-25T03:37:12;0.63;0.63;0.47
70197;PMS5003;57582;-34.876;138.628;2023-04-25T03:40:12;1.03;0.03;0.00
70197;PMS5003;57582;-34.876;138.628;2023-04-25T03:43:12;1.80;1.80;0.33
70197;PMS5003;57582;-34.876;138.628;2023-04-25T03:46:12;0.40;0.40;0.03
70197;PMS5003;57582;-34.876;138.628;2023-04-25T03:49:13;0.00;0.00;0.00
70197;PMS5003;57582;-34.876;138.628;2023-04-25T03:52:12;0.00;0.00;0.00
70197;PMS5003;57582;-34.876;138.628;2023-04-25T03:55:12;0.00;0.00;0.00
70197;PMS5003;57582;-34.876;138.628;2023-04-25T03:58:13;0.00;0.00;0.00
70197;PMS5003;57582;-34.876;138.628;2023-04-25T04:01:12;0.00;0.00;0.00
70197;PMS5003;57582;-34.876;138.628;2023-04-25T04:04:12;1.03;0.00;0.00
70197;PMS5003;57582;-34.876;138.628;2023-04-25T04:07:12;0.00;0.00;0.00
70197;PMS5003;57582;-34.876;138.628;2023-04-25T04:10:13;0.00;0.00;0.00
70197;PMS5003;57582;-34.876;138.628;2023-04-25T04:13:12;0.07;0.07;0.00
70197;PMS5003;57582;-34.876;138.628;2023-04-25T04:16:12;0.80;0.00;0.00
70197;PMS5003;57582;-34.876;138.628;2023-04-25T04:19:12;1.20;0.60;0.00
70197;PMS5003;57582;-34.876;138.628;2023-04-25T04:22:13;0.07;0.00;0.00
70197;PMS5003;57582;-34.876;138.628;2023-04-25T04:25:12;0.07;0.07;0.07
70197;PMS5003;57582;-34.876;138.628;2023-04-25T04:28:12;0.00;0.00;0.00
70197;PMS5003;57582;-34.876;138.628;2023-04-25T04:31:12;0.37;0.37;0.00
70197;PMS5003;57582;-34.876;138.628;2023-04-25T04:34:13;0.13;0.13;0.00
70197;PMS5003;57582;-34.876;138.628;2023-04-25T04:37:12;0.00;0.00;0.00
70197;PMS5003;57582;-34.876;138.628;2023-04-25T04:40:13;0.40;0.00;0.00
70197;PMS5003;57582;-34.876;138.628;2023-04-25T04:43:12;0.00;0.00;0.00
70197;PMS5003;57582;-34.876;138.628;2023-04-25T04:46:13;0.00;0.00;0.00
70197;PMS5003;57582;-34.876;138.628;2023-04-25T04:49:12;0.27;0.00;0.00
70197;PMS5003;57582;-34.876;138.628;2023-04-25T04:52:12;0.00;0.00;0.00
70197;PMS5003;57582;-34.876;138.628;2023-04-25T04:55:12;0.47;0.00;0.00
70197;PMS5003;57582;-34.876;138.628;2023-04-25T04:58:12;0.13;0.13;0.00
70197;PMS5003;57582;-34.876;138.628;2023-04-25T05:01:13;0.00;0.00;0.00
70197;PMS5003;57582;-34.876;138.628;2023-04-25T05:04:12;0.40;0.00;0.00
70197;PMS5003;57582;-34.876;138.628;2023-04-25T05:07:13;0.00;0.00;0.00
70197;PMS5003;57582;-34.876;138.628;2023-04-25T05:10:13;0.00;0.00;0.00
70197;PMS5003;57582;-34.876;138.628;2023-04-25T05:13:13;0.90;0.00;0.00
70197;PMS5003;57582;-34.876;138.628;2023-04-25T05:16:13;0.87;0.13;0.00
70197;PMS5003;57582;-34.876;138.628;2023-04-25T05:19:12;0.00;0.00;0.00
70197;PMS5003;57582;-34.876;138.628;2023-04-25T05:22:12;0.13;0.00;0.00
70197;PMS5003;57582;-34.876;138.628;2023-04-25T05:25:13;0.00;0.00;0.00
70197;PMS5003;57582;-34.876;138.628;2023-04-25T05:28:13;0.47;0.27;0.00
70197;PMS5003;57582;-34.876;138.628;2023-04-25T05:31:12;0.33;0.00;0.00
70197;PMS5003;57582;-34.876;138.628;2023-04-25T05:34:13;0.17;0.17;0.17
70197;PMS5003;57582;-34.876;138.628;2023-04-25T05:37:12;0.13;0.00;0.00
70197;PMS5003;57582;-34.876;138.628;2023-04-25T05:40:12;0.00;0.00;0.00
70197;PMS5003;57582;-34.876;138.628;2023-04-25T05:43:12;0.93;0.20;0.00
70197;PMS5003;57582;-34.876;138.628;2023-04-25T05:46:13;0.00;0.00;0.00
70197;PMS5003;57582;-34.876;138.628;2023-04-25T05:49:13;0.33;0.00;0.00
70197;PMS5003;57582;-34.876;138.628;2023-04-25T05:52:12;0.00;0.00;0.00
70197;PMS5003;57582;-34.876;138.628;2023-04-25T05:55:12;0.00;0.00;0.00
70197;PMS5003;57582;-34.876;138.628;2023-04-25T05:58:13;1.60;0.67;0.10
70197;PMS5003;57582;-34.876;138.628;2023-04-25T06:01:13;0.40;0.10;0.00
70197;PMS5003;57582;-34.876;138.628;2023-04-25T06:04:12;0.33;0.33;0.00
70197;PMS5003;57582;-34.876;138.628;2023-04-25T06:07:12;0.00;0.00;0.00
70197;PMS5003;57582;-34.876;138.628;2023-04-25T06:10:12;0.00;0.00;0.00
70197;PMS5003;57582;-34.876;138.628;2023-04-25T06:13:13;0.03;0.03;0.00
70197;PMS5003;57582;-34.876;138.628;2023-04-25T06:16:12;0.13;0.13;0.00
70197;PMS5003;57582;-34.876;138.628;2023-04-25T06:19:12;0.13;0.13;0.00
70197;PMS5003;57582;-34.876;138.628;2023-04-25T06:22:13;0.17;0.17;0.00
70197;PMS5003;57582;-34.876;138.628;2023-04-25T06:25:13;0.73;0.73;0.03
70197;PMS5003;57582;-34.876;138.628;2023-04-25T06:28:12;0.77;0.67;0.27
70197;PMS5003;57582;-34.876;138.628;2023-04-25T06:31:12;0.67;0.33;0.20
70197;PMS5003;57582;-34.876;138.628;2023-04-25T06:34:13;0.30;0.00;0.00
70197;PMS5003;57582;-34.876;138.628;2023-04-25T06:37:13;0.03;0.00;0.00
70197;PMS5003;57582;-34.876;138.628;2023-04-25T06:40:12;0.47;0.33;0.00
70197;PMS5003;57582;-34.876;138.628;2023-04-25T06:46:13;0.10;0.03;0.00
70197;PMS5003;57582;-34.876;138.628;2023-04-25T06:49:12;0.00;0.00;0.00
70197;PMS5003;57582;-34.876;138.628;2023-04-25T06:55:12;0.00;0.00;0.00
70197;PMS5003;57582;-34.876;138.628;2023-04-25T06:58:13;0.00;0.00;0.00
70197;PMS5003;57582;-34.876;138.628;2023-04-25T07:01:12;0.17;0.17;0.00
70197;PMS5003;57582;-34.876;138.628;2023-04-25T07:04:12;0.37;0.37;0.00
70197;PMS5003;57582;-34.876;138.628;2023-04-25T07:07:12;0.00;0.00;0.00
70197;PMS5003;57582;-34.876;138.628;2023-04-25T07:10:13;0.40;0.40;0.03
70197;PMS5003;57582;-34.876;138.628;2023-04-25T07:13:13;0.00;0.00;0.00
70197;PMS5003;57582;-34.876;138.628;2023-04-25T07:16:12;0.00;0.00;0.00
70197;PMS5003;57582;-34.876;138.628;2023-04-25T07:19:12;0.70;0.00;0.00
70197;PMS5003;57582;-34.876;138.628;2023-04-25T07:22:13;0.00;0.00;0.00
70197;PMS5003;57582;-34.876;138.628;2023-04-25T07:25:13;0.00;0.00;0.00
70197;PMS5003;57582;-34.876;138.628;2023-04-25T07:28:12;0.00;0.00;0.00
70197;PMS5003;57582;-34.876;138.628;2023-04-25T07:31:12;0.00;0.00;0.00
70197;PMS5003;57582;-34.876;138.628;2023-04-25T07:34:13;0.00;0.00;0.00
70197;PMS5003;57582;-34.876;138.628;2023-04-25T07:37:13;0.10;0.10;0.00
70197;PMS5003;57582;-34.876;138.628;2023-04-25T07:40:13;0.10;0.10;0.10
70197;PMS5003;57582;-34.876;138.628;2023-04-25T07:43:12;0.57;0.47;0.00
70197;PMS5003;57582;-34.876;138.628;2023-04-25T07:46:13;0.73;0.47;0.00
70197;PMS5003;57582;-34.876;138.628;2023-04-25T07:49:13;0.30;0.30;0.00
70197;PMS5003;57582;-34.876;138.628;2023-04-25T07:52:12;0.60;0.60;0.00
70197;PMS5003;57582;-34.876;138.628;2023-04-25T07:55:12;0.53;0.13;0.03
70197;PMS5003;57582;-34.876;138.628;2023-04-25T07:58:13;0.23;0.00;0.00
70197;PMS5003;57582;-34.876;138.628;2023-04-25T08:01:13;0.53;0.07;0.00
70197;PMS5003;57582;-34.876;138.628;2023-04-25T08:04:13;0.07;0.07;0.00
70197;PMS5003;57582;-34.876;138.628;2023-04-25T08:07:13;19.73;16.53;10.60
70197;PMS5003;57582;-34.876;138.628;2023-04-25T08:10:13;11.17;10.53;8.17
70197;PMS5003;57582;-34.876;138.628;2023-04-25T08:13:13;5.60;5.60;3.60
70197;PMS5003;57582;-34.876;138.628;2023-04-25T08:16:13;3.83;3.67;1.87
70197;PMS5003;57582;-34.876;138.628;2023-04-25T08:19:13;1.67;0.83;0.30
70197;PMS5003;57582;-34.876;138.628;2023-04-25T08:22:13;0.93;0.93;0.50
70197;PMS5003;57582;-34.876;138.628;2023-04-25T08:25:13;1.87;1.00;0.53
70197;PMS5003;57582;-34.876;138.628;2023-04-25T08:28:13;1.30;1.30;0.10
70197;PMS5003;57582;-34.876;138.628;2023-04-25T08:31:12;0.67;0.67;0.03
70197;PMS5003;57582;-34.876;138.628;2023-04-25T08:34:13;1.77;1.67;0.77
70197;PMS5003;57582;-34.876;138.628;2023-04-25T08:37:13;0.70;0.57;0.20
70197;PMS5003;57582;-34.876;138.628;2023-04-25T08:40:14;0.87;0.87;0.63
70197;PMS5003;57582;-34.876;138.628;2023-04-25T08:43:14;0.07;0.07;0.00
70197;PMS5003;57582;-34.876;138.628;2023-04-25T08:46:17;1.50;1.50;0.17
70197;PMS5003;57582;-34.876;138.628;2023-04-25T08:49:13;0.57;0.57;0.07
70197;PMS5003;57582;-34.876;138.628;2023-04-25T08:52:13;0.37;0.37;0.00
70197;PMS5003;57582;-34.876;138.628;2023-04-25T08:55:13;0.83;0.83;0.10
70197;PMS5003;57582;-34.876;138.628;2023-04-25T08:58:13;1.33;1.33;0.57
70197;PMS5003;57582;-34.876;138.628;2023-04-25T09:01:13;1.40;1.40;0.70
70197;PMS5003;57582;-34.876;138.628;2023-04-25T09:04:13;0.23;0.23;0.00
70197;PMS5003;57582;-34.876;138.628;2023-04-25T09:07:12;1.00;1.00;0.47
70197;PMS5003;57582;-34.876;138.628;2023-04-25T09:10:13;0.43;0.43;0.37
70197;PMS5003;57582;-34.876;138.628;2023-04-25T09:13:17;1.07;1.07;0.53
70197;PMS5003;57582;-34.876;138.628;2023-04-25T09:16:12;1.07;1.07;0.33
70197;PMS5003;57582;-34.876;138.628;2023-04-25T09:19:24;1.77;1.27;0.87
70197;PMS5003;57582;-34.876;138.628;2023-04-25T09:22:14;1.73;0.90;0.67
70197;PMS5003;57582;-34.876;138.628;2023-04-25T09:25:13;0.30;0.07;0.00
70197;PMS5003;57582;-34.876;138.628;2023-04-25T09:28:12;0.97;0.97;0.10
70197;PMS5003;57582;-34.876;138.628;2023-04-25T09:31:21;1.43;0.67;0.17
70197;PMS5003;57582;-34.876;138.628;2023-04-25T09:34:13;0.90;0.40;0.00
70197;PMS5003;57582;-34.876;138.628;2023-04-25T09:37:19;0.67;0.67;0.00
70197;PMS5003;57582;-34.876;138.628;2023-04-25T09:40:13;0.57;0.13;0.00
70197;PMS5003;57582;-34.876;138.628;2023-04-25T09:43:21;0.00;0.00;0.00
70197;PMS5003;57582;-34.876;138.628;2023-04-25T09:46:13;0.27;0.27;0.17
70197;PMS5003;57582;-34.876;138.628;2023-04-25T09:49:14;1.57;0.67;0.10
70197;PMS5003;57582;-34.876;138.628;2023-04-25T09:52:17;1.07;0.57;0.03
70197;PMS5003;57582;-34.876;138.628;2023-04-25T09:55:13;1.97;0.63;0.33
70197;PMS5003;57582;-34.876;138.628;2023-04-25T09:58:14;0.67;0.00;0.00
70197;PMS5003;57582;-34.876;138.628;2023-04-25T10:01:13;0.47;0.13;0.00
70197;PMS5003;57582;-34.876;138.628;2023-04-25T10:04:16;0.57;0.03;0.00
70197;PMS5003;57582;-34.876;138.628;2023-04-25T10:07:13;1.20;0.00;0.00
70197;PMS5003;57582;-34.876;138.628;2023-04-25T10:10:13;0.53;0.40;0.00
70197;PMS5003;57582;-34.876;138.628;2023-04-25T10:13:13;1.30;0.60;0.00
70197;PMS5003;57582;-34.876;138.628;2023-04-25T10:16:13;0.67;0.57;0.00
70197;PMS5003;57582;-34.876;138.628;2023-04-25T10:19:13;0.83;0.83;0.33
70197;PMS5003;57582;-34.876;138.628;2023-04-25T10:25:14;0.03;0.03;0.00
70197;PMS5003;57582;-34.876;138.628;2023-04-25T10:28:13;0.53;0.53;0.00
70197;PMS5003;57582;-34.876;138.628;2023-04-25T10:31:16;1.07;0.23;0.00
70197;PMS5003;57582;-34.876;138.628;2023-04-25T10:34:15;0.33;0.00;0.00
70197;PMS5003;57582;-34.876;138.628;2023-04-25T10:37:13;0.00;0.00;0.00
70197;PMS5003;57582;-34.876;138.628;2023-04-25T10:40:13;0.03;0.03;0.00
70197;PMS5003;57582;-34.876;138.628;2023-04-25T10:46:19;0.30;0.00;0.00
70197;PMS5003;57582;-34.876;138.628;2023-04-25T10:49:41;0.90;0.00;0.00
70197;PMS5003;57582;-34.876;138.628;2023-04-25T10:52:29;0.00;0.00;0.00
70197;PMS5003;57582;-34.876;138.628;2023-04-25T10:55:13;0.70;0.70;0.23
70197;PMS5003;57582;-34.876;138.628;2023-04-25T10:58:13;0.80;0.80;0.00
70197;PMS5003;57582;-34.876;138.628;2023-04-25T11:01:20;0.43;0.43;0.00
70197;PMS5003;57582;-34.876;138.628;2023-04-25T11:10:14;0.40;0.40;0.00
70197;PMS5003;57582;-34.876;138.628;2023-04-25T11:13:13;3.53;0.73;0.23
70197;PMS5003;57582;-34.876;138.628;2023-04-25T11:16:13;0.37;0.03;0.00
70197;PMS5003;57582;-34.876;138.628;2023-04-25T11:19:13;0.27;0.27;0.00
70197;PMS5003;57582;-34.876;138.628;2023-04-25T11:22:14;0.30;0.30;0.00
70197;PMS5003;57582;-34.876;138.628;2023-04-25T11:25:15;0.13;0.13;0.00
70197;PMS5003;57582;-34.876;138.628;2023-04-25T11:28:13;0.93;0.73;0.00
70197;PMS5003;57582;-34.876;138.628;2023-04-25T11:31:13;0.70;0.37;0.03
70197;PMS5003;57582;-34.876;138.628;2023-04-25T11:34:17;1.13;0.07;0.03
70197;PMS5003;57582;-34.876;138.628;2023-04-25T11:37:15;1.33;0.60;0.00
70197;PMS5003;57582;-34.876;138.628;2023-04-25T11:40:13;0.63;0.13;0.00
70197;PMS5003;57582;-34.876;138.628;2023-04-25T11:43:13;2.97;2.07;0.23
70197;PMS5003;57582;-34.876;138.628;2023-04-25T11:46:13;1.43;1.43;0.00
70197;PMS5003;57582;-34.876;138.628;2023-04-25T11:49:15;0.03;0.03;0.00
70197;PMS5003;57582;-34.876;138.628;2023-04-25T11:52:13;0.00;0.00;0.00
70197;PMS5003;57582;-34.876;138.628;2023-04-25T11:55:15;0.30;0.30;0.00
70197;PMS5003;57582;-34.876;138.628;2023-04-25T11:58:13;0.00;0.00;0.00
70197;PMS5003;57582;-34.876;138.628;2023-04-25T12:01:26;0.00;0.00;0.00
70197;PMS5003;57582;-34.876;138.628;2023-04-25T12:04:15;0.47;0.00;0.00
70197;PMS5003;57582;-34.876;138.628;2023-04-25T12:07:13;0.57;0.57;0.00
70197;PMS5003;57582;-34.876;138.628;2023-04-25T12:10:15;0.47;0.03;0.00
70197;PMS5003;57582;-34.876;138.628;2023-04-25T12:13:23;0.87;0.53;0.00
70197;PMS5003;57582;-34.876;138.628;2023-04-25T12:16:13;0.63;0.63;0.00
70197;PMS5003;57582;-34.876;138.628;2023-04-25T12:19:14;2.00;0.90;0.00
70197;PMS5003;57582;-34.876;138.628;2023-04-25T12:22:23;1.40;1.40;0.37
70197;PMS5003;57582;-34.876;138.628;2023-04-25T12:28:15;0.60;0.53;0.00
70197;PMS5003;57582;-34.876;138.628;2023-04-25T12:31:13;0.17;0.17;0.00
70197;PMS5003;57582;-34.876;138.628;2023-04-25T12:34:13;0.30;0.30;0.00
70197;PMS5003;57582;-34.876;138.628;2023-04-25T12:37:14;1.93;0.87;0.00
70197;PMS5003;57582;-34.876;138.628;2023-04-25T12:40:13;1.17;0.57;0.37
70197;PMS5003;57582;-34.876;138.628;2023-04-25T12:43:13;0.50;0.50;0.00
70197;PMS5003;57582;-34.876;138.628;2023-04-25T12:46:13;0.33;0.33;0.00
70197;PMS5003;57582;-34.876;138.628;2023-04-25T12:49:14;1.30;0.77;0.50
70197;PMS5003;57582;-34.876;138.628;2023-04-25T12:52:13;1.23;0.50;0.00
70197;PMS5003;57582;-34.876;138.628;2023-04-25T12:55:14;0.53;0.53;0.07
70197;PMS5003;57582;-34.876;138.628;2023-04-25T12:58:14;0.50;0.50;0.00
70197;PMS5003;57582;-34.876;138.628;2023-04-25T13:01:14;0.53;0.53;0.00
70197;PMS5003;57582;-34.876;138.628;2023-04-25T13:04:13;0.80;0.80;0.03
70197;PMS5003;57582;-34.876;138.628;2023-04-25T13:07:13;1.57;0.93;0.63
70197;PMS5003;57582;-34.876;138.628;2023-04-25T13:10:13;0.63;0.63;0.03
70197;PMS5003;57582;-34.876;138.628;2023-04-25T13:13:14;0.00;0.00;0.00
70197;PMS5003;57582;-34.876;138.628;2023-04-25T13:16:13;0.47;0.47;0.30
70197;PMS5003;57582;-34.876;138.628;2023-04-25T13:19:13;0.03;0.03;0.00
70197;PMS5003;57582;-34.876;138.628;2023-04-25T13:22:13;0.17;0.17;0.00
70197;PMS5003;57582;-34.876;138.628;2023-04-25T13:25:13;0.00;0.00;0.00
70197;PMS5003;57582;-34.876;138.628;2023-04-25T13:28:13;0.70;0.70;0.00
70197;PMS5003;57582;-34.876;138.628;2023-04-25T13:31:14;1.00;0.57;0.17
70197;PMS5003;57582;-34.876;138.628;2023-04-25T13:34:13;1.37;1.37;0.57
70197;PMS5003;57582;-34.876;138.628;2023-04-25T13:37:14;0.10;0.10;0.00
70197;PMS5003;57582;-34.876;138.628;2023-04-25T13:40:13;1.37;1.37;0.53
70197;PMS5003;57582;-34.876;138.628;2023-04-25T13:43:14;1.20;1.20;0.00
70197;PMS5003;57582;-34.876;138.628;2023-04-25T13:46:14;0.67;0.67;0.27
70197;PMS5003;57582;-34.876;138.628;2023-04-25T13:49:14;0.77;0.77;0.03
70197;PMS5003;57582;-34.876;138.628;2023-04-25T13:52:13;0.97;0.37;0.00
70197;PMS5003;57582;-34.876;138.628;2023-04-25T13:55:13;0.60;0.33;0.13
70197;PMS5003;57582;-34.876;138.628;2023-04-25T13:58:13;0.00;0.00;0.00
70197;PMS5003;57582;-34.876;138.628;2023-04-25T14:01:14;1.00;0.57;0.07
70197;PMS5003;57582;-34.876;138.628;2023-04-25T14:04:13;0.73;0.27;0.00
70197;PMS5003;57582;-34.876;138.628;2023-04-25T14:07:14;0.37;0.37;0.00
70197;PMS5003;57582;-34.876;138.628;2023-04-25T14:10:13;1.33;0.50;0.10
70197;PMS5003;57582;-34.876;138.628;2023-04-25T14:13:13;1.83;0.80;0.13
70197;PMS5003;57582;-34.876;138.628;2023-04-25T14:16:13;1.30;0.67;0.27
70197;PMS5003;57582;-34.876;138.628;2023-04-25T14:19:16;0.67;0.67;0.00
70197;PMS5003;57582;-34.876;138.628;2023-04-25T14:22:14;0.30;0.20;0.00
70197;PMS5003;57582;-34.876;138.628;2023-04-25T14:25:13;0.53;0.53;0.30
70197;PMS5003;57582;-34.876;138.628;2023-04-25T14:28:13;1.00;1.00;0.37
70197;PMS5003;57582;-34.876;138.628;2023-04-25T14:31:13;0.53;0.53;0.23
70197;PMS5003;57582;-34.876;138.628;2023-04-25T14:34:13;0.20;0.20;0.00
70197;PMS5003;57582;-34.876;138.628;2023-04-25T14:37:14;0.40;0.40;0.00
70197;PMS5003;57582;-34.876;138.628;2023-04-25T14:40:13;1.40;0.60;0.03
70197;PMS5003;57582;-34.876;138.628;2023-04-25T14:43:14;0.20;0.20;0.00
70197;PMS5003;57582;-34.876;138.628;2023-04-25T14:46:13;0.70;0.70;0.03
70197;PMS5003;57582;-34.876;138.628;2023-04-25T14:49:14;0.80;0.80;0.00
70197;PMS5003;57582;-34.876;138.628;2023-04-25T14:52:13;0.60;0.20;0.20
70197;PMS5003;57582;-34.876;138.628;2023-04-25T14:55:14;0.53;0.40;0.00
70197;PMS5003;57582;-34.876;138.628;2023-04-25T14:58:13;2.27;0.57;0.00
70197;PMS5003;57582;-34.876;138.628;2023-04-25T15:01:13;0.37;0.37;0.00
70197;PMS5003;57582;-34.876;138.628;2023-04-25T15:04:13;0.80;0.40;0.00
70197;PMS5003;57582;-34.876;138.628;2023-04-25T15:07:14;0.10;0.00;0.00
70197;PMS5003;57582;-34.876;138.628;2023-04-25T15:10:13;0.37;0.23;0.10
70197;PMS5003;57582;-34.876;138.628;2023-04-25T15:13:14;0.47;0.47;0.17
70197;PMS5003;57582;-34.876;138.628;2023-04-25T15:16:13;0.20;0.20;0.00
70197;PMS5003;57582;-34.876;138.628;2023-04-25T15:19:14;0.47;0.47;0.00
70197;PMS5003;57582;-34.876;138.628;2023-04-25T15:22:13;0.20;0.00;0.00
70197;PMS5003;57582;-34.876;138.628;2023-04-25T15:25:15;0.83;0.33;0.23
70197;PMS5003;57582;-34.876;138.628;2023-04-25T15:28:13;1.13;0.57;0.00
70197;PMS5003;57582;-34.876;138.628;2023-04-25T15:31:14;0.33;0.00;0.00
70197;PMS5003;57582;-34.876;138.628;2023-04-25T15:34:13;1.63;0.00;0.00
70197;PMS5003;57582;-34.876;138.628;2023-04-25T15:37:14;0.10;0.00;0.00
70197;PMS5003;57582;-34.876;138.628;2023-04-25T15:40:15;0.03;0.03;0.00
70197;PMS5003;57582;-34.876;138.628;2023-04-25T15:43:13;0.33;0.33;0.17
70197;PMS5003;57582;-34.876;138.628;2023-04-25T15:46:13;0.00;0.00;0.00
70197;PMS5003;57582;-34.876;138.628;2023-04-25T15:49:14;0.00;0.00;0.00
70197;PMS5003;57582;-34.876;138.628;2023-04-25T15:52:13;0.00;0.00;0.00
70197;PMS5003;57582;-34.876;138.628;2023-04-25T15:55:14;0.00;0.00;0.00
70197;PMS5003;57582;-34.876;138.628;2023-04-25T15:58:13;1.60;0.10;0.00
70197;PMS5003;57582;-34.876;138.628;2023-04-25T16:01:13;0.20;0.00;0.00
70197;PMS5003;57582;-34.876;138.628;2023-04-25T16:04:13;0.47;0.37;0.00
70197;PMS5003;57582;-34.876;138.628;2023-04-25T16:07:14;0.10;0.10;0.00
70197;PMS5003;57582;-34.876;138.628;2023-04-25T16:10:14;0.47;0.47;0.03
70197;PMS5003;57582;-34.876;138.628;2023-04-25T16:13:13;0.00;0.00;0.00
70197;PMS5003;57582;-34.876;138.628;2023-04-25T16:16:14;0.80;0.00;0.00
70197;PMS5003;57582;-34.876;138.628;2023-04-25T16:19:14;0.00;0.00;0.00
70197;PMS5003;57582;-34.876;138.628;2023-04-25T16:22:13;0.07;0.07;0.00
70197;PMS5003;57582;-34.876;138.628;2023-04-25T16:25:14;0.03;0.03;0.00
70197;PMS5003;57582;-34.876;138.628;2023-04-25T16:28:13;0.00;0.00;0.00
70197;PMS5003;57582;-34.876;138.628;2023-04-25T16:31:14;0.00;0.00;0.00
70197;PMS5003;57582;-34.876;138.628;2023-04-25T16:34:13;0.63;0.63;0.00
70197;PMS5003;57582;-34.876;138.628;2023-04-25T16:37:14;0.00;0.00;0.00
70197;PMS5003;57582;-34.876;138.628;2023-04-25T16:40:13;0.00;0.00;0.00
70197;PMS5003;57582;-34.876;138.628;2023-04-25T16:43:14;0.83;0.83;0.00
70197;PMS5003;57582;-34.876;138.628;2023-04-25T16:46:13;0.90;0.90;0.00
70197;PMS5003;57582;-34.876;138.628;2023-04-25T16:49:14;0.80;0.80;0.33
70197;PMS5003;57582;-34.876;138.628;2023-04-25T16:52:13;0.53;0.13;0.00
70197;PMS5003;57582;-34.876;138.628;2023-04-25T16:55:13;0.50;0.37;0.00
70197;PMS5003;57582;-34.876;138.628;2023-04-25T16:58:13;0.00;0.00;0.00
70197;PMS5003;57582;-34.876;138.628;2023-04-25T17:01:14;0.87;0.33;0.00
70197;PMS5003;57582;-34.876;138.628;2023-04-25T17:04:13;0.00;0.00;0.00
70197;PMS5003;57582;-34.876;138.628;2023-04-25T17:07:14;1.03;0.10;0.00
70197;PMS5003;57582;-34.876;138.628;2023-04-25T17:10:13;0.00;0.00;0.00
70197;PMS5003;57582;-34.876;138.628;2023-04-25T17:13:14;0.70;0.70;0.00
70197;PMS5003;57582;-34.876;138.628;2023-04-25T17:16:13;0.17;0.17;0.00
70197;PMS5003;57582;-34.876;138.628;2023-04-25T17:19:14;0.13;0.13;0.00
70197;PMS5003;57582;-34.876;138.628;2023-04-25T17:22:14;0.17;0.17;0.00
70197;PMS5003;57582;-34.876;138.628;2023-04-25T17:25:14;0.33;0.33;0.00
70197;PMS5003;57582;-34.876;138.628;2023-04-25T17:28:14;0.00;0.00;0.00
70197;PMS5003;57582;-34.876;138.628;2023-04-25T17:31:15;0.00;0.00;0.00